Time;durP1;ratioP1;P1;durP2;ratioP2;P2;SDS_P1;SDS_P2;PMS_P1;PMS_P2;Temp;Humidity;BMP_temperature;BMP_pressure;BME280_temperature;BME280_humidity;BME280_pressure;Samples;Min_cycle;Max_cycle;Signal;HPM_P1;HPM_P2
2022/09/23 00:01:57;;;;;;;4.20;1.65;;;;;;;8.73;80.08;94852.59;5132266;27;20201;-73
2022/09/23 00:04:24;;;;;;;0.85;0.85;;;;;;;8.73;80.17;94846.41;5131950;27;20300;-72
2022/09/23 00:06:52;;;;;;;0.88;0.88;;;;;;;8.69;80.26;94848.13;5131658;27;20247;-73
2022/09/23 00:09:18;;;;;;;1.00;0.82;;;;;;;8.67;80.31;94853.03;5132262;27;20245;-72
2022/09/23 00:11:47;;;;;;;3.53;1.30;;;;;;;8.63;80.44;94849.34;5131617;27;20685;-72
2022/09/23 00:14:13;;;;;;;3.25;1.35;;;;;;;8.52;80.93;94846.09;5131475;27;20213;-73
2022/09/23 00:16:40;;;;;;;3.45;1.40;;;;;;;8.45;81.17;94841.16;5130848;27;20258;-73
2022/09/23 00:19:07;;;;;;;1.38;1.20;;;;;;;8.39;81.30;94847.78;5131384;27;20229;-73
2022/09/23 00:21:34;;;;;;;2.90;1.55;;;;;;;8.39;81.44;94837.00;5131118;27;20230;-73
2022/09/23 00:24:02;;;;;;;1.65;1.20;;;;;;;8.39;81.70;94837.00;5131027;27;20280;-72
2022/09/23 00:26:29;;;;;;;2.17;1.38;;;;;;;8.31;82.08;94836.91;5130377;27;20235;-72
2022/09/23 00:28:57;;;;;;;1.80;1.00;;;;;;;8.27;81.89;94831.31;5131055;27;20258;-73
2022/09/23 00:31:26;;;;;;;1.48;0.90;;;;;;;8.27;82.15;94841.31;5131003;27;20624;-72
2022/09/23 00:33:54;;;;;;;1.02;0.93;;;;;;;8.20;82.57;94844.44;5130884;27;20640;-73
2022/09/23 00:36:20;;;;;;;2.20;1.27;;;;;;;8.11;83.17;94843.59;5130650;27;20299;-72
2022/09/23 00:38:47;;;;;;;0.88;0.85;;;;;;;8.08;83.13;94841.50;5129275;27;20300;-71
2022/09/23 00:41:15;;;;;;;1.20;0.98;;;;;;;7.92;83.87;94845.69;5130527;27;20729;-73
2022/09/23 00:43:43;;;;;;;2.47;1.30;;;;;;;7.87;84.63;94840.38;5130178;27;20207;-72
2022/09/23 00:46:16;;;;;;;1.00;0.90;;;;;;;7.78;85.12;94833.03;5130395;27;20193;-72
2022/09/23 00:48:44;;;;;;;0.70;0.70;;;;;;;7.78;85.09;94838.44;5125216;27;20229;-73
2022/09/23 00:51:19;;;;;;;4.03;1.63;;;;;;;7.70;85.38;94841.81;5131077;27;20245;-73
2022/09/23 00:53:48;;;;;;;0.63;0.60;;;;;;;7.70;85.59;94836.44;5128022;27;20196;-72
2022/09/23 00:56:15;;;;;;;2.03;1.63;;;;;;;7.61;85.87;94843.66;5118276;27;20966;-72
2022/09/23 00:58:46;;;;;;;2.05;1.20;;;;;;;7.48;86.80;94844.50;5130775;27;20208;-73
2022/09/23 01:01:14;;;;;;;1.20;1.00;;;;;;;7.47;87.12;94840.19;5130566;27;20193;-72
2022/09/23 01:03:44;;;;;;;1.10;1.00;;;;;;;7.35;87.79;94846.09;5130735;27;20209;-72
2022/09/23 01:06:12;;;;;;;5.82;4.35;;;;;;;7.29;88.10;94847.31;5130450;27;20216;-72
2022/09/23 01:08:39;;;;;;;5.53;4.20;;;;;;;7.19;88.82;94852.09;5130787;27;20193;-72
2022/09/23 01:11:15;;;;;;;2.42;1.55;;;;;;;7.09;89.30;94853.91;5130037;27;20274;-73
2022/09/23 01:13:52;;;;;;;2.83;1.30;;;;;;;7.00;89.79;94850.31;5130256;27;20208;-73
2022/09/23 01:16:26;;;;;;;2.30;1.23;;;;;;;6.91;90.20;94857.50;5116895;27;20197;-73
2022/09/23 01:19:00;;;;;;;3.88;2.08;;;;;;;6.87;90.34;94850.31;5130619;27;20494;-72
2022/09/23 01:21:39;;;;;;;0.90;0.85;;;;;;;6.83;90.85;94854.72;5130503;27;20214;-73
2022/09/23 01:24:34;;;;;;;6.15;4.72;;;;;;;6.75;90.83;94853.47;5130552;27;20197;-72
2022/09/23 01:27:21;;;;;;;8.10;6.03;;;;;;;6.66;91.13;94857.97;5130726;27;20212;-73
2022/09/23 01:30:16;;;;;;;7.32;5.20;;;;;;;6.59;91.53;94854.84;5127102;27;20204;-71
2022/09/23 01:33:03;;;;;;;7.68;5.10;;;;;;;6.62;91.67;94854.25;5119762;27;20243;-72
2022/09/23 01:35:43;;;;;;;3.47;1.23;;;;;;;6.63;91.51;94855.88;5130539;27;20185;-72
2022/09/23 01:38:19;;;;;;;1.83;1.42;;;;;;;6.63;91.53;94855.88;5130527;27;20593;-72
2022/09/23 01:40:51;;;;;;;2.85;1.45;;;;;;;6.59;91.77;94857.53;5130532;27;20901;-72
2022/09/23 01:43:24;;;;;;;2.10;1.50;;;;;;;6.61;91.49;94858.84;5130105;27;20200;-72
2022/09/23 01:45:55;;;;;;;2.72;0.98;;;;;;;6.57;91.26;94857.03;5130412;27;20652;-72
2022/09/23 01:48:30;;;;;;;2.13;1.35;;;;;;;6.61;91.20;94858.84;5129952;27;20209;-72
2022/09/23 01:51:04;;;;;;;1.10;0.88;;;;;;;6.64;90.86;94860.16;5129894;27;20204;-72
2022/09/23 01:53:39;;;;;;;0.63;0.63;;;;;;;6.70;90.40;94867.03;5117638;27;20596;-73
2022/09/23 01:56:12;;;;;;;1.85;1.17;;;;;;;6.67;90.47;94867.66;5131398;27;20596;-73
2022/09/23 01:58:42;;;;;;;2.40;0.93;;;;;;;6.61;90.20;94866.91;5131263;27;20614;-72
2022/09/23 02:01:14;;;;;;;2.00;1.35;;;;;;;6.63;90.47;94859.34;5131305;27;20201;-73
2022/09/23 02:03:48;;;;;;;2.15;1.60;;;;;;;6.58;90.38;94864.00;5130852;27;20193;-72
2022/09/23 02:06:21;;;;;;;1.67;1.23;;;;;;;6.54;90.63;94868.41;5131247;27;20185;-73
2022/09/23 02:08:55;;;;;;;1.10;0.65;;;;;;;6.58;90.98;94856.75;5130901;28;20293;-74
2022/09/23 02:11:22;;;;;;;0.57;0.57;;;;;;;6.85;90.54;94855.97;5110571;28;20276;-73
2022/09/23 02:13:54;;;;;;;1.88;1.05;;;;;;;6.87;90.32;94861.06;5124550;28;20212;-72
2022/09/23 02:16:26;;;;;;;1.10;1.00;;;;;;;7.03;90.00;94855.09;5130694;27;20192;-72
2022/09/23 02:19:00;;;;;;;1.35;1.20;;;;;;;6.97;90.05;94855.50;5130407;27;20557;-72
2022/09/23 02:21:29;;;;;;;1.27;1.08;;;;;;;7.03;90.14;94855.09;5130575;28;20194;-73
2022/09/23 02:24:04;;;;;;;1.17;1.05;;;;;;;6.99;90.44;94854.09;5131176;27;20288;-72
2022/09/23 02:26:35;;;;;;;5.53;4.05;;;;;;;7.03;90.60;94844.31;5130863;27;20233;-73
2022/09/23 02:29:11;;;;;;;6.40;4.70;;;;;;;7.10;90.46;94842.03;5131198;28;20284;-72
2022/09/23 02:31:42;;;;;;;6.82;4.95;;;;;;;7.09;90.32;94851.22;5131256;27;20189;-73
2022/09/23 02:34:22;;;;;;;5.60;4.18;;;;;;;7.10;90.46;94847.44;5130817;27;20189;-72
2022/09/23 02:37:01;;;;;;;6.63;4.85;;;;;;;7.04;90.45;94843.22;5130476;27;20628;-72
2022/09/23 02:39:38;;;;;;;1.58;1.15;;;;;;;7.02;90.51;94850.81;5130286;28;20533;-72
2022/09/23 02:42:08;;;;;;;6.53;4.20;;;;;;;7.06;90.41;94843.72;5130330;28;20264;-73
2022/09/23 02:44:36;;;;;;;6.82;5.05;;;;;;;7.06;90.16;94854.50;5130524;27;20587;-72
2022/09/23 02:47:03;;;;;;;6.70;4.78;;;;;;;7.02;90.17;94853.50;5133189;27;20289;-72
2022/09/23 02:49:34;;;;;;;1.23;1.13;;;;;;;7.00;90.10;94861.06;5134333;27;20734;-72
2022/09/23 02:52:03;;;;;;;1.20;0.98;;;;;;;7.02;90.08;94853.50;5134152;27;20277;-72
2022/09/23 02:54:32;;;;;;;2.03;1.30;;;;;;;7.00;90.05;94866.47;5134205;27;20203;-73
2022/09/23 02:57:01;;;;;;;1.88;1.05;;;;;;;7.00;89.74;94868.34;5134373;27;20233;-73
2022/09/23 02:59:30;;;;;;;2.08;1.17;;;;;;;6.92;90.12;94874.44;5134498;27;20323;-72
2022/09/23 03:02:16;;;;;;;0.50;0.50;;;;;;;7.01;89.88;94868.06;5134363;27;20261;-72
2022/09/23 03:04:52;;;;;;;2.10;1.40;;;;;;;7.00;89.72;94873.75;5134315;27;20270;-71
2022/09/23 03:07:24;;;;;;;2.75;0.75;;;;;;;6.97;89.86;94867.06;5134173;27;20226;-71
2022/09/23 03:10:00;;;;;;;1.40;1.23;;;;;;;6.95;89.78;94865.78;5121142;27;20580;-72
2022/09/23 03:12:36;;;;;;;3.13;1.77;;;;;;;6.89;89.63;94870.44;5133899;27;20238;-71
2022/09/23 03:15:17;;;;;;;2.00;1.00;;;;;;;6.89;89.97;94867.75;5135164;27;20228;-72
2022/09/23 03:17:48;;;;;;;1.58;0.95;;;;;;;6.82;90.26;94872.75;5135156;27;20201;-73
2022/09/23 03:20:26;;;;;;;2.03;1.17;;;;;;;6.88;90.06;94862.66;5136175;27;20223;-72
2022/09/23 03:22:58;;;;;;;1.30;0.88;;;;;;;6.90;90.54;94865.88;5121160;27;20193;-72
2022/09/23 03:25:27;;;;;;;1.65;1.10;;;;;;;6.91;90.19;94862.88;5133902;27;20189;-72
2022/09/23 03:27:57;;;;;;;2.25;1.50;;;;;;;6.86;90.56;94865.66;5133584;27;20229;-73
2022/09/23 03:30:25;;;;;;;1.77;1.13;;;;;;;6.78;90.87;94867.16;5133487;27;20197;-73
2022/09/23 03:32:54;;;;;;;0.80;0.80;;;;;;;6.70;91.10;94872.41;5133788;27;20203;-73
2022/09/23 03:35:24;;;;;;;5.70;4.40;;;;;;;6.69;90.87;94871.63;5132858;27;20262;-74
2022/09/23 03:37:56;;;;;;;1.17;1.08;;;;;;;6.71;90.38;94863.25;5133872;27;20265;-72
2022/09/23 03:40:28;;;;;;;3.55;1.40;;;;;;;6.67;90.21;94867.66;5133594;27;20193;-71
2022/09/23 03:42:57;;;;;;;6.63;4.13;;;;;;;6.56;91.00;94863.53;5133111;27;20648;-73
2022/09/23 03:45:29;;;;;;;7.57;5.05;;;;;;;6.48;91.83;94864.19;5133524;27;20204;-72
2022/09/23 03:47:56;;;;;;;6.63;4.80;;;;;;;6.40;92.12;94869.19;5133493;27;20258;-74
2022/09/23 03:50:25;;;;;;;8.75;5.57;;;;;;;6.36;92.14;94865.47;5132645;27;20233;-73
2022/09/23 03:52:51;;;;;;;7.05;5.00;;;;;;;6.33;92.47;94874.13;5132647;27;20204;-73
2022/09/23 03:55:20;;;;;;;9.15;5.57;;;;;;;6.17;92.71;94875.47;5133134;27;20197;-72
2022/09/23 03:57:47;;;;;;;10.73;6.45;;;;;;;6.06;93.02;94874.03;5132106;27;20629;-72
2022/09/23 04:00:15;;;;;;;8.15;6.22;;;;;;;5.95;93.41;94872.59;5133022;27;20201;-72
2022/09/23 04:02:43;;;;;;;3.28;1.20;;;;;;;5.95;93.14;94886.03;5132702;27;20247;-73
2022/09/23 04:05:12;;;;;;;2.05;1.83;;;;;;;5.87;93.38;94884.00;5132934;27;20661;-72
2022/09/23 04:07:41;;;;;;;0.95;0.85;;;;;;;5.75;93.63;94878.22;5132536;27;20229;-74
2022/09/23 04:10:09;;;;;;;3.10;1.65;;;;;;;5.62;94.32;94885.94;5132658;27;20800;-75
2022/09/23 04:12:35;;;;;;;5.53;2.28;;;;;;;5.51;94.42;94879.09;5132977;27;20197;-72
2022/09/23 04:15:02;;;;;;;2.33;1.83;;;;;;;5.46;94.79;94875.69;5132735;27;20242;-73
2022/09/23 04:17:29;;;;;;;1.40;1.25;;;;;;;5.51;94.80;94892.53;5133103;27;20215;-73
2022/09/23 04:19:56;;;;;;;1.50;1.35;;;;;;;5.48;94.94;94895.78;5132513;27;20744;-72
2022/09/23 04:22:23;;;;;;;9.05;5.95;;;;;;;5.43;95.37;94893.19;5132171;27;20242;-71
2022/09/23 04:24:51;;;;;;;8.48;6.43;;;;;;;5.46;95.58;94892.63;5132439;27;20608;-72
2022/09/23 04:27:18;;;;;;;12.23;6.60;;;;;;;5.44;95.96;94902.84;5132308;27;20257;-72
2022/09/23 04:29:45;;;;;;;7.38;5.60;;;;;;;5.49;96.03;94905.44;5132562;27;20671;-72
2022/09/23 04:32:12;;;;;;;10.63;6.35;;;;;;;5.52;96.00;94907.56;5132796;27;20249;-72
2022/09/23 04:34:39;;;;;;;1.63;1.25;;;;;;;5.64;95.47;94905.25;5132379;27;20197;-72
2022/09/23 04:37:05;;;;;;;1.58;1.25;;;;;;;5.98;95.36;94909.66;5132127;27;20193;-72
2022/09/23 04:39:32;;;;;;;2.22;1.45;;;;;;;6.22;94.71;94915.75;5132405;27;20258;-71
2022/09/23 04:42:00;;;;;;;1.45;1.23;;;;;;;6.47;93.50;94911.03;5132014;27;20885;-72
2022/09/23 04:44:28;;;;;;;2.35;1.33;;;;;;;6.59;91.99;94919.44;5132751;27;20596;-73
2022/09/23 04:46:55;;;;;;;2.50;1.40;;;;;;;6.39;91.27;94920.59;5132038;27;20201;-71
2022/09/23 04:49:22;;;;;;;1.55;1.42;;;;;;;6.36;91.44;94921.97;5131949;27;20232;-71
2022/09/23 04:51:49;;;;;;;2.22;1.52;;;;;;;6.29;92.41;94926.91;5131398;27;20204;-74
2022/09/23 04:54:15;;;;;;;2.08;1.65;;;;;;;6.36;92.54;94927.34;5131362;27;20213;-71
2022/09/23 04:56:43;;;;;;;2.83;1.48;;;;;;;6.39;92.57;94929.47;5132033;27;20228;-72
2022/09/23 04:59:11;;;;;;;1.70;1.30;;;;;;;6.41;92.73;94935.34;5132172;27;20197;-73
2022/09/23 05:01:37;;;;;;;4.60;1.85;;;;;;;6.42;92.34;94931.53;5131790;27;20213;-72
2022/09/23 05:04:08;;;;;;;9.43;6.22;;;;;;;6.50;92.23;94931.97;5132895;27;20609;-72
2022/09/23 05:06:36;;;;;;;8.30;6.10;;;;;;;6.69;91.95;94925.47;5119984;27;20205;-71
2022/09/23 05:09:07;;;;;;;1.92;1.58;;;;;;;6.77;91.21;94924.78;5132197;27;20281;-73
2022/09/23 05:11:34;;;;;;;1.20;1.08;;;;;;;6.87;90.46;94926.50;5131508;27;20201;-71
2022/09/23 05:14:02;;;;;;;1.98;1.40;;;;;;;6.92;90.39;94929.09;5131452;27;20273;-72
2022/09/23 05:16:30;;;;;;;1.27;1.17;;;;;;;7.26;89.54;94936.00;5131348;27;20800;-72
2022/09/23 05:18:57;;;;;;;2.10;1.90;;;;;;;8.40;86.64;94919.56;5131698;27;20247;-74
2022/09/23 05:21:26;;;;;;;5.70;2.30;;;;;;;9.23;80.74;94925.28;5131646;27;20209;-74
2022/09/23 05:23:55;;;;;;;3.08;2.28;;;;;;;9.57;78.98;94920.00;5130925;27;20564;-72
2022/09/23 05:26:23;;;;;;;3.00;2.25;;;;;;;9.92;76.57;94915.50;5131069;27;20209;-72
2022/09/23 05:28:49;;;;;;;2.55;1.25;;;;;;;10.15;75.87;94915.34;5131694;27;20288;-71
2022/09/23 05:31:18;;;;;;;3.47;1.10;;;;;;;10.51;73.94;94926.72;5131278;27;20686;-71
2022/09/23 05:33:51;;;;;;;2.20;1.48;;;;;;;9.75;75.81;94923.56;5131672;27;20250;-73
2022/09/23 05:36:20;;;;;;;1.60;1.00;;;;;;;8.94;78.77;94931.19;5130964;27;20702;-73
2022/09/23 05:38:47;;;;;;;0.77;0.77;;;;;;;9.01;79.30;94923.47;5131431;27;20213;-72
2022/09/23 05:41:14;;;;;;;1.70;1.60;;;;;;;9.68;76.54;94920.53;5132112;27;20215;-72
2022/09/23 05:43:42;;;;;;;1.48;1.38;;;;;;;10.36;73.65;94919.06;5131536;27;20310;-72
2022/09/23 05:46:11;;;;;;;4.32;1.60;;;;;;;10.73;71.88;94908.66;5131657;27;20273;-75
2022/09/23 05:48:39;;;;;;;2.20;2.00;;;;;;;11.66;69.25;94903.25;5131328;27;20283;-73
2022/09/23 05:51:15;;;;;;;2.95;1.95;;;;;;;13.55;63.24;94898.09;5131161;27;20201;-73
2022/09/23 05:53:44;;;;;;;1.95;1.42;;;;;;;13.63;61.35;94899.16;5110327;28;20272;-73
2022/09/23 05:56:12;;;;;;;5.60;3.28;;;;;;;13.13;62.16;94892.00;5125008;27;20629;-74
2022/09/23 05:58:39;;;;;;;3.38;2.28;;;;;;;13.02;62.21;94890.84;5130445;27;20203;-72
2022/09/23 06:01:10;;;;;;;3.78;1.65;;;;;;;12.32;62.66;94895.34;5131072;27;20208;-75
2022/09/23 06:03:38;;;;;;;1.45;0.95;;;;;;;12.33;64.14;94891.50;5130686;27;20313;-72
2022/09/23 06:06:05;;;;;;;1.42;1.20;;;;;;;11.87;64.23;94901.41;5130313;27;20197;-77
2022/09/23 06:08:34;;;;;;;1.25;1.00;;;;;;;12.34;63.44;94895.81;5131050;28;20293;-72
2022/09/23 06:11:06;;;;;;;3.30;0.90;;;;;;;11.95;64.29;94892.41;5130882;28;20618;-72
2022/09/23 06:13:34;;;;;;;0.95;0.88;;;;;;;12.87;61.05;94889.56;5131108;28;20193;-74
2022/09/23 06:16:01;;;;;;;0.70;0.70;;;;;;;12.51;62.66;94886.72;5130871;27;20207;-74
2022/09/23 06:18:28;;;;;;;2.10;1.40;;;;;;;12.25;63.88;94889.66;5130735;27;20261;-74
2022/09/23 06:20:55;;;;;;;0.73;0.70;;;;;;;12.77;61.51;94890.00;5131962;27;20211;-71
2022/09/23 06:23:21;;;;;;;1.27;0.82;;;;;;;12.25;63.12;94895.88;5135054;27;20234;-78
2022/09/23 06:25:50;;;;;;;0.65;0.65;;;;;;;11.80;64.42;94901.13;5135024;27;20231;-74
2022/09/23 06:28:16;;;;;;;0.60;0.50;;;;;;;12.40;62.96;94892.56;5134085;27;20265;-73
2022/09/23 06:30:43;;;;;;;0.90;0.90;;;;;;;11.87;64.63;94901.41;5135140;27;20241;-72
2022/09/23 06:33:10;;;;;;;1.88;1.27;;;;;;;12.01;64.20;94896.53;5134785;27;20559;-72
2022/09/23 06:35:37;;;;;;;2.47;1.88;;;;;;;12.40;63.82;94891.78;5134926;27;20216;-71
2022/09/23 06:38:05;;;;;;;1.92;1.40;;;;;;;12.74;61.24;94891.44;5134654;27;20205;-74
2022/09/23 06:40:31;;;;;;;1.45;1.35;;;;;;;12.65;61.74;94898.91;5134531;27;20285;-72
2022/09/23 06:43:01;;;;;;;2.28;1.77;;;;;;;13.32;61.16;94886.88;5134842;27;20197;-71
2022/09/23 06:45:28;;;;;;;0.70;0.70;;;;;;;12.35;62.03;94905.53;5120985;27;20205;-76
2022/09/23 06:47:56;;;;;;;2.97;1.27;;;;;;;12.14;63.39;94893.91;5134401;27;20212;-72
2022/09/23 06:50:24;;;;;;;1.30;0.95;;;;;;;11.81;64.19;94896.50;5133547;27;20229;-77
2022/09/23 06:52:54;;;;;;;3.03;1.48;;;;;;;11.37;66.10;94910.25;5134027;27;20630;-72
2022/09/23 06:55:23;;;;;;;1.88;1.58;;;;;;;11.09;66.99;94919.91;5134150;27;20257;-76
2022/09/23 06:57:50;;;;;;;1.38;1.02;;;;;;;10.80;67.88;94917.09;5133277;27;20205;-75
2022/09/23 07:00:19;;;;;;;2.85;1.58;;;;;;;10.65;68.70;94913.78;5133493;27;20262;-73
2022/09/23 07:02:46;;;;;;;0.50;0.50;;;;;;;11.19;67.43;94916.88;5133301;27;20739;-72
2022/09/23 07:05:16;;;;;;;0.73;0.73;;;;;;;10.83;68.22;94919.16;5133191;27;20209;-72
2022/09/23 07:07:43;;;;;;;2.38;1.40;;;;;;;11.49;66.80;94927.75;5133249;27;20239;-72
2022/09/23 07:10:11;;;;;;;2.05;1.20;;;;;;;11.19;67.12;94922.28;5133318;27;20232;-74
2022/09/23 07:12:38;;;;;;;1.55;1.42;;;;;;;11.05;67.78;94924.41;5133792;27;20209;-74
2022/09/23 07:15:06;;;;;;;1.48;0.68;;;;;;;11.26;67.94;94929.91;5133219;27;20208;-72
2022/09/23 07:17:34;;;;;;;2.58;1.80;;;;;;;10.84;68.45;94934.31;5133697;27;20209;-76
2022/09/23 07:20:02;;;;;;;1.17;0.85;;;;;;;10.56;69.11;94929.25;5133444;27;20234;-74
2022/09/23 07:22:28;;;;;;;1.25;0.93;;;;;;;10.65;69.61;94930.06;5133381;27;20208;-73
2022/09/23 07:24:56;;;;;;;1.27;1.00;;;;;;;10.72;70.11;94934.16;5133593;27;20259;-73
2022/09/23 07:27:24;;;;;;;1.58;1.23;;;;;;;10.61;70.11;94917.44;5132916;27;20201;-77
2022/09/23 07:29:50;;;;;;;1.45;1.30;;;;;;;10.80;69.24;94922.50;5132199;27;20655;-76
2022/09/23 07:32:18;;;;;;;1.52;0.98;;;;;;;10.67;69.36;94919.66;5132134;27;20200;-75
2022/09/23 07:34:47;;;;;;;2.65;1.30;;;;;;;10.87;69.60;94939.09;5133054;27;20220;-72
2022/09/23 07:37:14;;;;;;;0.77;0.77;;;;;;;11.05;70.08;94951.50;5133157;27;20205;-73
2022/09/23 07:39:41;;;;;;;1.38;1.17;;;;;;;11.13;69.35;94945.25;5133552;27;20287;-74
2022/09/23 07:42:09;;;;;;;1.58;1.02;;;;;;;11.44;68.29;94942.28;5133129;27;20567;-73
2022/09/23 07:44:36;;;;;;;1.38;1.02;;;;;;;11.38;67.08;94944.38;5133064;27;20209;-73
2022/09/23 07:47:03;;;;;;;1.42;1.23;;;;;;;11.28;67.57;94938.53;5133166;27;20353;-74
2022/09/23 07:49:30;;;;;;;1.33;1.00;;;;;;;11.09;68.18;94952.44;5132847;27;20275;-77
2022/09/23 07:51:59;;;;;;;0.90;0.80;;;;;;;11.06;68.10;94939.53;5132881;27;20201;-73
2022/09/23 07:54:28;;;;;;;0.70;0.70;;;;;;;10.99;68.19;94955.50;5131974;27;20249;-76
2022/09/23 07:56:55;;;;;;;1.63;1.00;;;;;;;10.97;68.27;94946.88;5132820;27;20204;-73
2022/09/23 07:59:22;;;;;;;2.47;2.28;;;;;;;11.06;68.58;94947.69;5131651;27;20205;-73
2022/09/23 08:01:52;;;;;;;0.75;0.75;;;;;;;11.01;68.64;94945.94;5131739;27;20299;-75
2022/09/23 08:04:22;;;;;;;1.02;0.95;;;;;;;11.52;66.79;94948.78;5133211;27;20197;-73
2022/09/23 08:06:52;;;;;;;1.40;0.98;;;;;;;11.54;65.82;94958.22;5132368;27;20277;-72
2022/09/23 08:09:22;;;;;;;1.33;1.10;;;;;;;11.42;66.95;94962.72;5132388;27;20244;-75
2022/09/23 08:11:50;;;;;;;1.88;1.27;;;;;;;11.51;66.23;94964.28;5132015;27;20559;-73
2022/09/23 08:14:17;;;;;;;2.03;1.60;;;;;;;11.77;65.46;94949.84;5132138;27;20200;-73
2022/09/23 08:16:45;;;;;;;2.40;1.52;;;;;;;11.82;65.30;94955.09;5132115;27;20205;-76
2022/09/23 08:19:13;;;;;;;2.45;0.98;;;;;;;11.79;65.63;94948.38;5132389;27;20224;-71
2022/09/23 08:21:40;;;;;;;1.83;1.58;;;;;;;12.45;64.83;94941.25;5132166;27;20787;-71
2022/09/23 08:24:08;;;;;;;0.50;0.43;;;;;;;12.14;63.01;94949.00;5132324;27;20552;-72
2022/09/23 08:26:36;;;;;;;2.13;1.35;;;;;;;12.04;64.24;94939.31;5132236;27;20683;-74
2022/09/23 08:29:04;;;;;;;0.85;0.85;;;;;;;11.55;65.08;94948.94;5132802;27;20225;-80
2022/09/23 08:31:31;;;;;;;1.33;0.98;;;;;;;11.65;65.56;94945.06;5131468;27;20285;-74
2022/09/23 08:33:58;;;;;;;1.33;0.95;;;;;;;11.75;64.90;94936.59;5132832;27;20220;-72
2022/09/23 08:36:26;;;;;;;1.45;0.98;;;;;;;12.27;64.64;94931.66;5132414;27;20213;-73
2022/09/23 08:38:54;;;;;;;1.13;0.98;;;;;;;12.04;64.29;94931.16;5132251;27;20616;-75
2022/09/23 08:41:28;;;;;;;1.15;1.05;;;;;;;11.86;64.65;94939.75;5132004;27;20227;-78
2022/09/23 08:44:01;;;;;;;2.33;1.27;;;;;;;11.91;64.59;94936.81;5119297;27;20198;-75
2022/09/23 08:46:34;;;;;;;1.27;1.05;;;;;;;12.44;64.01;94930.72;5132619;27;20197;-73
2022/09/23 08:49:02;;;;;;;1.38;1.17;;;;;;;12.52;63.03;94926.34;5131881;27;20236;-73
2022/09/23 08:51:35;;;;;;;0.63;0.57;;;;;;;12.53;62.41;94928.75;5123879;27;20505;-72
2022/09/23 08:54:02;;;;;;;1.27;0.90;;;;;;;12.42;62.49;94927.56;5129239;27;20287;-74
2022/09/23 08:56:31;;;;;;;0.80;0.80;;;;;;;12.33;63.25;94926.81;5131699;27;20208;-73
2022/09/23 08:59:07;;;;;;;1.30;0.95;;;;;;;12.80;61.32;94921.94;5130902;27;20193;-74
2022/09/23 09:01:41;;;;;;;8.23;1.42;;;;;;;13.02;61.08;94923.50;5127117;27;20211;-72
2022/09/23 09:04:17;;;;;;;3.05;2.00;;;;;;;13.27;59.41;94925.16;5130961;27;20204;-75
2022/09/23 09:06:47;;;;;;;2.90;1.98;;;;;;;13.56;57.94;94921.47;5128231;27;20200;-73
2022/09/23 09:09:23;;;;;;;1.40;1.00;;;;;;;13.43;57.96;94920.66;5130551;27;20301;-73
2022/09/23 09:11:56;;;;;;;0.52;0.52;;;;;;;13.09;57.24;94921.03;5130725;27;20206;-74
2022/09/23 09:14:28;;;;;;;2.42;0.90;;;;;;;13.06;58.21;94918.97;5130722;27;20529;-74
2022/09/23 09:16:58;;;;;;;1.60;0.68;;;;;;;13.07;57.44;94921.38;5130888;27;20201;-74
2022/09/23 09:19:46;;;;;;;0.88;0.88;;;;;;;13.33;57.60;94918.41;5130683;27;20584;-73
2022/09/23 09:22:20;;;;;;;2.40;1.38;;;;;;;13.84;57.48;94922.41;5129900;27;20204;-75
2022/09/23 09:24:49;;;;;;;1.83;1.58;;;;;;;13.35;58.50;94927.03;5131028;27;20241;-75
2022/09/23 09:27:16;;;;;;;0.75;0.70;;;;;;;13.75;55.57;94923.66;5129475;27;20194;-74
2022/09/23 09:29:47;;;;;;;1.52;1.05;;;;;;;14.01;55.31;94924.09;5130440;27;20239;-76
2022/09/23 09:32:22;;;;;;;1.20;0.98;;;;;;;14.17;55.22;94911.38;5129780;27;20315;-75
2022/09/23 09:34:53;;;;;;;1.08;0.80;;;;;;;14.06;54.36;94912.19;5130442;27;20232;-74
2022/09/23 09:37:27;;;;;;;2.00;1.60;;;;;;;14.67;53.71;94915.59;5130547;27;20208;-73
2022/09/23 09:39:54;;;;;;;1.67;0.90;;;;;;;14.56;52.45;94912.56;5130988;27;20201;-72
2022/09/23 09:42:26;;;;;;;1.77;1.60;;;;;;;14.45;54.44;94916.13;5130697;27;20201;-72
2022/09/23 09:45:00;;;;;;;0.82;0.80;;;;;;;13.91;54.14;94927.28;5130697;27;20199;-74
2022/09/23 09:47:39;;;;;;;0.88;0.82;;;;;;;14.19;56.07;94916.47;5130686;27;20200;-72
2022/09/23 09:50:10;;;;;;;1.00;0.90;;;;;;;13.74;55.83;94922.06;5130419;27;20794;-74
2022/09/23 09:52:38;;;;;;;1.50;1.00;;;;;;;14.13;54.57;94924.09;5130867;27;20208;-72
2022/09/23 09:55:24;;;;;;;0.73;0.73;;;;;;;14.20;52.41;94916.16;5129932;27;20781;-73
2022/09/23 09:57:54;;;;;;;1.42;1.15;;;;;;;14.30;51.86;94916.78;5130594;27;20285;-71
2022/09/23 10:00:42;;;;;;;0.50;0.43;;;;;;;13.84;52.65;94916.16;5130395;27;20201;-72
2022/09/23 10:03:26;;;;;;;1.73;0.52;;;;;;;14.12;52.71;94911.59;5129636;27;20228;-71
2022/09/23 10:05:55;;;;;;;1.33;1.13;;;;;;;13.79;53.08;94919.13;5129995;27;20655;-72
2022/09/23 10:08:26;;;;;;;1.33;0.95;;;;;;;13.99;54.08;94907.31;5130745;27;20863;-72
2022/09/23 10:10:59;;;;;;;0.30;0.30;;;;;;;14.01;54.14;94907.75;5130771;28;20219;-73
2022/09/23 10:13:29;;;;;;;0.55;0.50;;;;;;;13.85;52.29;94898.69;5130456;28;20212;-73
2022/09/23 10:15:58;;;;;;;1.25;0.95;;;;;;;14.03;52.28;94908.22;5130097;28;20329;-72
2022/09/23 10:18:30;;;;;;;1.48;1.38;;;;;;;13.99;51.57;94890.16;5130111;27;20208;-73
2022/09/23 10:21:06;;;;;;;0.93;0.73;;;;;;;14.56;50.88;94888.03;5130152;28;20201;-72
2022/09/23 10:23:33;;;;;;;1.50;0.90;;;;;;;14.78;51.01;94889.41;5129918;27;20208;-71
2022/09/23 10:26:02;;;;;;;0.60;0.60;;;;;;;14.86;49.87;94891.19;5129958;28;20197;-70
2022/09/23 10:28:41;;;;;;;1.13;1.02;;;;;;;14.88;51.11;94885.41;5124242;28;20201;-72
2022/09/23 10:31:13;;;;;;;1.90;1.50;;;;;;;14.53;51.75;94887.91;5129957;28;20213;-71
2022/09/23 10:33:42;;;;;;;1.75;1.20;;;;;;;15.06;51.40;94888.59;5129043;28;20714;-71
2022/09/23 10:36:10;;;;;;;1.27;1.02;;;;;;;15.16;47.89;94888.09;5129481;28;20258;-71
2022/09/23 10:38:37;;;;;;;1.27;0.95;;;;;;;15.10;47.51;94884.03;5129761;28;20201;-70
2022/09/23 10:47:02;;;;;;;0.88;0.80;;;;;;;14.86;49.06;94879.50;5130178;28;20196;-72
2022/09/23 10:49:56;;;;;;;1.27;0.95;;;;;;;15.37;47.79;94883.19;5129647;28;20236;-71
2022/09/23 10:52:44;;;;;;;2.00;0.85;;;;;;;15.47;46.26;94888.09;5119573;28;20197;-72
2022/09/23 10:55:27;;;;;;;0.90;0.70;;;;;;;15.26;47.42;94882.13;5129835;28;20221;-72
2022/09/23 10:58:18;;;;;;;1.45;1.08;;;;;;;15.52;48.55;94876.13;5130072;27;20197;-71
2022/09/23 11:00:53;;;;;;;0.70;0.70;;;;;;;15.41;47.51;94873.16;5129784;28;20197;-73
2022/09/23 11:03:44;;;;;;;0.80;0.73;;;;;;;14.65;49.36;94878.88;5129755;28;20201;-71
2022/09/23 11:06:21;;;;;;;1.52;1.35;;;;;;;14.42;51.05;94886.81;5126628;28;20201;-72
2022/09/23 11:09:00;;;;;;;0.73;0.60;;;;;;;14.70;50.62;94860.38;5132996;27;20281;-72
2022/09/23 11:11:38;;;;;;;1.00;0.90;;;;;;;14.78;50.21;94867.59;5133369;27;20213;-70
2022/09/23 11:14:32;;;;;;;0.20;0.20;;;;;;;14.72;48.79;94852.63;5133547;27;20215;-71
2022/09/23 11:17:14;;;;;;;1.02;0.93;;;;;;;14.96;47.88;94850.91;5125141;27;20223;-72
2022/09/23 11:20:07;;;;;;;1.15;0.85;;;;;;;15.08;47.23;94859.81;5121531;27;20291;-72
2022/09/23 11:22:51;;;;;;;0.65;0.50;;;;;;;15.19;47.51;94852.69;5133420;27;20225;-73
2022/09/23 11:25:35;;;;;;;0.75;0.73;;;;;;;15.09;47.32;94857.88;5133489;27;20193;-72
2022/09/23 11:28:37;;;;;;;1.60;1.08;;;;;;;15.10;47.48;94851.28;5133683;27;20205;-72
2022/09/23 11:31:15;;;;;;;1.15;0.82;;;;;;;15.03;45.08;94856.56;5133386;27;20216;-71
2022/09/23 11:33:54;;;;;;;1.30;1.08;;;;;;;15.12;45.41;94849.78;5132982;27;20217;-73
2022/09/23 11:36:27;;;;;;;1.40;0.75;;;;;;;15.25;45.50;94847.78;5132639;27;20723;-71
2022/09/23 11:38:57;;;;;;;0.85;0.75;;;;;;;15.63;45.09;94839.78;5132344;27;20193;-72
2022/09/23 11:41:27;;;;;;;2.58;1.58;;;;;;;15.76;45.24;94840.47;5133342;27;20204;-70
2022/09/23 11:44:02;;;;;;;0.88;0.63;;;;;;;15.79;43.93;94833.50;5132965;27;20197;-71
2022/09/23 11:46:35;;;;;;;1.25;0.80;;;;;;;15.71;41.45;94826.31;5132547;27;20206;-74
2022/09/23 11:49:09;;;;;;;1.58;1.00;;;;;;;15.57;42.00;94835.75;5132396;27;20225;-71
2022/09/23 11:51:42;;;;;;;0.43;0.43;;;;;;;15.95;40.67;94826.06;5132694;27;20764;-71
2022/09/23 11:54:16;;;;;;;1.55;0.98;;;;;;;15.79;41.67;94826.09;5132800;27;20228;-71
2022/09/23 11:56:46;;;;;;;1.02;0.77;;;;;;;15.41;42.42;94834.94;5132451;27;20294;-71
2022/09/23 11:59:20;;;;;;;1.20;1.00;;;;;;;15.73;42.21;94823.97;5131833;27;20724;-73
2022/09/23 12:01:53;;;;;;;1.20;1.00;;;;;;;16.08;42.14;94811.13;5132316;27;20678;-71